Tropical Cyclones
[Index]
Main Index Home Page Stock Weather Photos Extreme Storms Discussion Storm News and Storm Chasing Reports Tropical Cyclones / Hurricanes / Typhoons Weather Data and Links Wild Fires / Bushfires Weather Observation Techniques Weather Picture Catalogue Tornado Pictures and Reports Stock Video Footage and DVDs for sale
Season 1985-1986 Tropical Cyclone NICHOLAS Track Map
Season 1985-1986 Summaries: [BoM-AU] [JTWC-AU] [JTWC-SIO] [JTWC-SPAC] [JTWC-SH]
<<- Previous TC | BoM 1985-1986 Season | Next TC ->>

click for intensity scale information  Lat/long Grid: Show Hide

 Date Labels: Show Hide

Bureau of Meteorology Tropical Cyclone Data

Name: NICHOLAS
Number: 680 / 198586_01

26 Nov 1985 00:00 UTC to 07 Dec 1985 12:00 UTC

    date/time    lat    long    hPa   cat  kts
1985-11-26 00    6.6   102.2   1005         21          
1985-11-26 06    6.8   102.2   1003         23          
1985-11-26 12    7.1   102.1   1003         23          
1985-11-26 18    7.4   102.0   1002         25          
1985-11-27 00    7.7   102.0   1002         25          
1985-11-27 06    8.0   101.9   1001         27          
1985-11-27 12    8.3   101.7   1001         27          
1985-11-27 18    8.5   101.3   1000         31          
1985-11-28 00    8.8   101.0    998         33          
1985-11-28 06    9.3   100.9    996         37          
1985-11-28 12    9.7   101.3    995    1    39          
1985-11-28 18   10.0   101.7    993    1    43          
1985-11-29 00   10.2   102.1    992    1    43          
1985-11-29 06   10.5   102.7    992    1    43          
1985-11-29 12   10.6   103.1    991    1    45          
1985-11-29 18   10.7   103.6    990    1    47          
1985-11-30 00   10.7   104.1    988    1    51          
1985-11-30 06   10.8   104.9    987    1    51          
1985-11-30 12   10.8   105.8    986    1    52          
1985-11-30 18   10.7   106.5    984    2    54          
1985-12-01 00   10.5   107.4    980    2    60          
1985-12-01 06   10.3   108.4    975    2    66          
1985-12-01 12   10.3   109.4    973    2    70          
1985-12-01 18   10.2   110.2    972    2    70          
1985-12-02 00   10.3   110.8    970    3    74          
1985-12-02 06   10.4   111.5    968    3    76          
1985-12-02 12   10.3   112.2    967    3    76          
1985-12-02 18   10.2   112.6    965    3    80          
1985-12-03 00   10.1   113.0    960    3    86          
1985-12-03 06   10.0   113.3    955    4    89          
1985-12-03 12    9.9   113.9    945    4    99          
1985-12-03 18   10.0   114.2    947    4    97          
1985-12-04 00   10.2   114.2    950    4    93          
1985-12-04 06   10.5   114.3    955    4    89          
1985-12-04 12   10.8   114.5    958    3    86          
1985-12-04 18   11.2   114.5    958    3    86          
1985-12-05 00   11.5   114.7    960    3    84          
1985-12-05 06   11.7   114.7    960    3    84          
1985-12-05 12   11.9   114.8    965    3    80          
1985-12-05 18   12.3   114.8    972    2    70          
1985-12-06 00   12.8   114.6    978    2    64          
1985-12-06 06   13.4   114.1    985    2    54          
1985-12-06 12   14.1   113.7    992    1    43          
1985-12-06 18   14.7   114.0    998         33          
1985-12-07 00   14.9   114.3    998         33          
1985-12-07 06   15.3   114.1    998         33          
1985-12-07 12   15.6   113.8   1002         25          
Winds are 10-min average.

Tropical cyclone tracks developed by Michael Bath using data from the Bureau of Meteorology and Google Maps.


[Australian Severe Weather index] [Copyright Notice] [Email Contacts] [Search This Site] [Privacy Policy]
Document: tropical_cyclone_nicholas.htm Updated: 30 May 2013